Aviation Digital Data Service (ADDS)

Output produced by METARs form (2001 UTC 26 September 2021)
found at http://www.aviationweather.gov/metar/data/
 
Forecast for: UTDL (KHUDZHAND , TJ)
Text: TAF UTDL 261800Z 2619/2707 24006MPS 7000 SCT080
Forecast period: 1900 UTC 26 September 2021 to 0700 UTC 27 September 2021
Forecast type: FROM: standard forecast or significant change
Winds: from the WSW (240 degrees) at 14 MPH (12 knots; 6.2 m/s)
Visibility: 4 miles (7 km)
Ceiling: at least 12,000 feet AGL
Clouds: scattered clouds at 8000 feet AGL
Weather: no significant weather forecast for this period
Text: TEMPO 2619/2707 27011MPS FEW060CB
Forecast period: 1900 UTC 26 September 2021 to 0700 UTC 27 September 2021
Forecast type: TEMPORARY: The following changes expected for less than half the time period
Winds: from the W (270 degrees) at 24 MPH (21 knots; 10.8 m/s)
Visibility: missing
Ceiling: at least 12,000 feet AGL
Clouds: few clouds at 6000 feet AGL
Weather: no significant weather forecast for this period